sensor_id;sensor_type;location;lat;lon;timestamp;P1;durP1;ratioP1;P2;durP2;ratioP2
26082;SDS011;13848;49.018;12.078;2023-03-16T00:01:38;6.55;;;4.38;;
26082;SDS011;13848;49.018;12.078;2023-03-16T00:04:04;7.50;;;4.25;;
26082;SDS011;13848;49.018;12.078;2023-03-16T00:06:30;7.78;;;4.35;;
26082;SDS011;13848;49.018;12.078;2023-03-16T00:08:56;6.30;;;3.83;;
26082;SDS011;13848;49.018;12.078;2023-03-16T00:11:22;6.68;;;4.18;;
26082;SDS011;13848;49.018;12.078;2023-03-16T00:13:50;5.80;;;4.20;;
26082;SDS011;13848;49.018;12.078;2023-03-16T00:16:16;7.22;;;3.97;;
26082;SDS011;13848;49.018;12.078;2023-03-16T00:18:41;6.05;;;3.97;;
26082;SDS011;13848;49.018;12.078;2023-03-16T00:21:08;7.47;;;4.32;;
26082;SDS011;13848;49.018;12.078;2023-03-16T00:23:34;5.07;;;3.83;;
26082;SDS011;13848;49.018;12.078;2023-03-16T00:26:02;7.90;;;4.15;;
26082;SDS011;13848;49.018;12.078;2023-03-16T00:28:29;7.22;;;3.78;;
26082;SDS011;13848;49.018;12.078;2023-03-16T00:30:57;7.65;;;4.35;;
26082;SDS011;13848;49.018;12.078;2023-03-16T00:33:23;5.88;;;4.05;;
26082;SDS011;13848;49.018;12.078;2023-03-16T00:35:50;7.55;;;4.13;;
26082;SDS011;13848;49.018;12.078;2023-03-16T00:38:16;5.72;;;3.90;;
26082;SDS011;13848;49.018;12.078;2023-03-16T00:40:43;5.88;;;4.10;;
26082;SDS011;13848;49.018;12.078;2023-03-16T00:43:09;6.43;;;4.13;;
26082;SDS011;13848;49.018;12.078;2023-03-16T00:45:35;7.05;;;4.07;;
26082;SDS011;13848;49.018;12.078;2023-03-16T00:48:02;6.47;;;4.25;;
26082;SDS011;13848;49.018;12.078;2023-03-16T00:50:28;5.05;;;3.78;;
26082;SDS011;13848;49.018;12.078;2023-03-16T00:52:54;5.80;;;3.95;;
26082;SDS011;13848;49.018;12.078;2023-03-16T00:55:20;6.20;;;3.83;;
26082;SDS011;13848;49.018;12.078;2023-03-16T00:57:46;5.97;;;4.20;;
26082;SDS011;13848;49.018;12.078;2023-03-16T01:00:12;10.88;;;4.65;;
26082;SDS011;13848;49.018;12.078;2023-03-16T01:02:39;11.13;;;6.32;;
26082;SDS011;13848;49.018;12.078;2023-03-16T01:05:07;11.10;;;5.60;;
26082;SDS011;13848;49.018;12.078;2023-03-16T01:07:33;11.32;;;6.13;;
26082;SDS011;13848;49.018;12.078;2023-03-16T01:09:59;13.10;;;7.28;;
26082;SDS011;13848;49.018;12.078;2023-03-16T01:12:25;14.43;;;7.30;;
26082;SDS011;13848;49.018;12.078;2023-03-16T01:14:51;14.88;;;7.28;;
26082;SDS011;13848;49.018;12.078;2023-03-16T01:17:17;20.33;;;7.72;;
26082;SDS011;13848;49.018;12.078;2023-03-16T01:19:43;13.32;;;7.50;;
26082;SDS011;13848;49.018;12.078;2023-03-16T01:22:11;14.88;;;7.57;;
26082;SDS011;13848;49.018;12.078;2023-03-16T01:24:39;12.50;;;6.82;;
26082;SDS011;13848;49.018;12.078;2023-03-16T01:27:05;11.77;;;6.82;;
26082;SDS011;13848;49.018;12.078;2023-03-16T01:29:32;13.88;;;8.07;;
26082;SDS011;13848;49.018;12.078;2023-03-16T01:31:58;12.63;;;7.28;;
26082;SDS011;13848;49.018;12.078;2023-03-16T01:34:25;12.68;;;7.43;;
26082;SDS011;13848;49.018;12.078;2023-03-16T01:36:51;13.00;;;7.47;;
26082;SDS011;13848;49.018;12.078;2023-03-16T01:39:18;15.75;;;7.60;;
26082;SDS011;13848;49.018;12.078;2023-03-16T01:41:44;13.40;;;7.60;;
26082;SDS011;13848;49.018;12.078;2023-03-16T01:44:12;13.70;;;7.32;;
26082;SDS011;13848;49.018;12.078;2023-03-16T01:46:40;12.50;;;7.18;;
26082;SDS011;13848;49.018;12.078;2023-03-16T01:49:08;13.15;;;7.22;;
26082;SDS011;13848;49.018;12.078;2023-03-16T01:51:37;14.45;;;7.95;;
26082;SDS011;13848;49.018;12.078;2023-03-16T01:54:05;13.98;;;7.65;;
26082;SDS011;13848;49.018;12.078;2023-03-16T01:56:37;16.05;;;8.45;;
26082;SDS011;13848;49.018;12.078;2023-03-16T01:59:06;14.10;;;8.18;;
26082;SDS011;13848;49.018;12.078;2023-03-16T02:01:36;13.80;;;7.80;;
26082;SDS011;13848;49.018;12.078;2023-03-16T02:04:05;14.48;;;8.07;;
26082;SDS011;13848;49.018;12.078;2023-03-16T02:06:37;12.88;;;7.90;;
26082;SDS011;13848;49.018;12.078;2023-03-16T02:09:04;12.40;;;7.30;;
26082;SDS011;13848;49.018;12.078;2023-03-16T02:11:31;12.93;;;7.50;;
26082;SDS011;13848;49.018;12.078;2023-03-16T02:14:00;12.90;;;7.53;;
26082;SDS011;13848;49.018;12.078;2023-03-16T02:16:30;13.35;;;7.88;;
26082;SDS011;13848;49.018;12.078;2023-03-16T02:18:56;13.65;;;7.57;;
26082;SDS011;13848;49.018;12.078;2023-03-16T02:21:24;13.73;;;7.95;;
26082;SDS011;13848;49.018;12.078;2023-03-16T02:23:58;14.02;;;7.53;;
26082;SDS011;13848;49.018;12.078;2023-03-16T02:26:27;16.23;;;8.95;;
26082;SDS011;13848;49.018;12.078;2023-03-16T02:29:05;16.00;;;8.18;;
26082;SDS011;13848;49.018;12.078;2023-03-16T02:31:43;17.70;;;8.32;;
26082;SDS011;13848;49.018;12.078;2023-03-16T02:34:09;14.93;;;8.25;;
26082;SDS011;13848;49.018;12.078;2023-03-16T02:36:36;13.80;;;7.95;;
26082;SDS011;13848;49.018;12.078;2023-03-16T02:39:04;16.08;;;7.93;;
26082;SDS011;13848;49.018;12.078;2023-03-16T02:41:30;13.00;;;7.88;;
26082;SDS011;13848;49.018;12.078;2023-03-16T02:43:57;16.58;;;8.20;;
26082;SDS011;13848;49.018;12.078;2023-03-16T02:46:28;15.55;;;8.55;;
26082;SDS011;13848;49.018;12.078;2023-03-16T02:48:58;16.85;;;8.63;;
26082;SDS011;13848;49.018;12.078;2023-03-16T02:51:27;17.20;;;8.93;;
26082;SDS011;13848;49.018;12.078;2023-03-16T02:53:54;17.95;;;9.00;;
26082;SDS011;13848;49.018;12.078;2023-03-16T02:56:20;17.08;;;8.15;;
26082;SDS011;13848;49.018;12.078;2023-03-16T02:58:46;15.23;;;8.32;;
26082;SDS011;13848;49.018;12.078;2023-03-16T03:01:12;14.10;;;8.23;;
26082;SDS011;13848;49.018;12.078;2023-03-16T03:03:38;16.92;;;8.13;;
26082;SDS011;13848;49.018;12.078;2023-03-16T03:06:06;16.75;;;8.10;;
26082;SDS011;13848;49.018;12.078;2023-03-16T03:08:32;15.32;;;8.13;;
26082;SDS011;13848;49.018;12.078;2023-03-16T03:10:58;15.63;;;8.45;;
26082;SDS011;13848;49.018;12.078;2023-03-16T03:13:24;16.67;;;8.05;;
26082;SDS011;13848;49.018;12.078;2023-03-16T03:15:49;13.93;;;7.60;;
26082;SDS011;13848;49.018;12.078;2023-03-16T03:18:15;15.32;;;7.78;;
26082;SDS011;13848;49.018;12.078;2023-03-16T03:20:41;16.52;;;7.03;;
26082;SDS011;13848;49.018;12.078;2023-03-16T03:23:09;13.07;;;7.05;;
26082;SDS011;13848;49.018;12.078;2023-03-16T03:25:35;10.85;;;6.32;;
26082;SDS011;13848;49.018;12.078;2023-03-16T03:28:01;12.48;;;7.30;;
26082;SDS011;13848;49.018;12.078;2023-03-16T03:30:28;10.95;;;6.68;;
26082;SDS011;13848;49.018;12.078;2023-03-16T03:32:54;12.07;;;6.57;;
26082;SDS011;13848;49.018;12.078;2023-03-16T03:35:20;13.52;;;6.65;;
26082;SDS011;13848;49.018;12.078;2023-03-16T03:37:47;11.13;;;6.28;;
26082;SDS011;13848;49.018;12.078;2023-03-16T03:40:16;11.82;;;6.38;;
26082;SDS011;13848;49.018;12.078;2023-03-16T03:42:43;14.77;;;6.50;;
26082;SDS011;13848;49.018;12.078;2023-03-16T03:45:09;11.32;;;6.63;;
26082;SDS011;13848;49.018;12.078;2023-03-16T03:47:36;12.93;;;5.30;;
26082;SDS011;13848;49.018;12.078;2023-03-16T03:50:02;9.70;;;5.60;;
26082;SDS011;13848;49.018;12.078;2023-03-16T03:52:29;10.50;;;5.07;;
26082;SDS011;13848;49.018;12.078;2023-03-16T03:54:55;11.15;;;5.30;;
26082;SDS011;13848;49.018;12.078;2023-03-16T03:57:22;9.10;;;5.45;;
26082;SDS011;13848;49.018;12.078;2023-03-16T03:59:48;9.68;;;5.45;;
26082;SDS011;13848;49.018;12.078;2023-03-16T04:02:14;10.65;;;5.55;;
26082;SDS011;13848;49.018;12.078;2023-03-16T04:04:40;9.25;;;5.53;;
26082;SDS011;13848;49.018;12.078;2023-03-16T04:07:07;12.00;;;6.00;;
26082;SDS011;13848;49.018;12.078;2023-03-16T04:09:34;11.63;;;6.05;;
26082;SDS011;13848;49.018;12.078;2023-03-16T04:12:00;12.02;;;6.15;;
26082;SDS011;13848;49.018;12.078;2023-03-16T04:14:28;13.48;;;6.45;;
26082;SDS011;13848;49.018;12.078;2023-03-16T04:16:55;10.90;;;6.25;;
26082;SDS011;13848;49.018;12.078;2023-03-16T04:19:21;12.70;;;6.05;;
26082;SDS011;13848;49.018;12.078;2023-03-16T04:21:47;11.32;;;5.93;;
26082;SDS011;13848;49.018;12.078;2023-03-16T04:24:13;10.65;;;5.88;;
26082;SDS011;13848;49.018;12.078;2023-03-16T04:26:39;12.77;;;6.55;;
26082;SDS011;13848;49.018;12.078;2023-03-16T04:29:04;11.45;;;6.05;;
26082;SDS011;13848;49.018;12.078;2023-03-16T04:31:32;11.80;;;6.57;;
26082;SDS011;13848;49.018;12.078;2023-03-16T04:33:58;10.55;;;6.55;;
26082;SDS011;13848;49.018;12.078;2023-03-16T04:36:24;13.55;;;5.97;;
26082;SDS011;13848;49.018;12.078;2023-03-16T04:38:50;9.88;;;5.88;;
26082;SDS011;13848;49.018;12.078;2023-03-16T04:41:16;10.93;;;6.50;;
26082;SDS011;13848;49.018;12.078;2023-03-16T04:43:43;10.23;;;6.05;;
26082;SDS011;13848;49.018;12.078;2023-03-16T04:46:09;13.63;;;6.65;;
26082;SDS011;13848;49.018;12.078;2023-03-16T04:48:36;10.57;;;5.95;;
26082;SDS011;13848;49.018;12.078;2023-03-16T04:51:02;12.93;;;7.03;;
26082;SDS011;13848;49.018;12.078;2023-03-16T04:53:29;10.65;;;6.38;;
26082;SDS011;13848;49.018;12.078;2023-03-16T04:55:55;10.82;;;6.13;;
26082;SDS011;13848;49.018;12.078;2023-03-16T04:58:21;12.40;;;6.72;;
26082;SDS011;13848;49.018;12.078;2023-03-16T05:00:47;10.20;;;5.88;;
26082;SDS011;13848;49.018;12.078;2023-03-16T05:03:13;10.57;;;6.00;;
26082;SDS011;13848;49.018;12.078;2023-03-16T05:05:40;9.57;;;5.68;;
26082;SDS011;13848;49.018;12.078;2023-03-16T05:08:06;9.57;;;5.43;;
26082;SDS011;13848;49.018;12.078;2023-03-16T05:10:33;11.50;;;5.75;;
26082;SDS011;13848;49.018;12.078;2023-03-16T05:12:59;9.95;;;5.60;;
26082;SDS011;13848;49.018;12.078;2023-03-16T05:15:25;10.25;;;5.85;;
26082;SDS011;13848;49.018;12.078;2023-03-16T05:17:51;12.07;;;6.43;;
26082;SDS011;13848;49.018;12.078;2023-03-16T05:20:19;9.52;;;5.90;;
26082;SDS011;13848;49.018;12.078;2023-03-16T05:22:46;9.60;;;5.68;;
26082;SDS011;13848;49.018;12.078;2023-03-16T05:25:12;12.40;;;6.35;;
26082;SDS011;13848;49.018;12.078;2023-03-16T05:27:39;11.18;;;5.95;;
26082;SDS011;13848;49.018;12.078;2023-03-16T05:30:06;12.93;;;6.50;;
26082;SDS011;13848;49.018;12.078;2023-03-16T05:32:33;13.27;;;6.93;;
26082;SDS011;13848;49.018;12.078;2023-03-16T05:34:58;13.00;;;6.85;;
26082;SDS011;13848;49.018;12.078;2023-03-16T05:37:24;11.73;;;6.45;;
26082;SDS011;13848;49.018;12.078;2023-03-16T05:39:52;13.13;;;6.53;;
26082;SDS011;13848;49.018;12.078;2023-03-16T05:42:18;13.35;;;7.28;;
26082;SDS011;13848;49.018;12.078;2023-03-16T05:44:43;11.13;;;5.95;;
26082;SDS011;13848;49.018;12.078;2023-03-16T05:47:10;10.98;;;6.68;;
26082;SDS011;13848;49.018;12.078;2023-03-16T05:49:36;10.90;;;6.43;;
26082;SDS011;13848;49.018;12.078;2023-03-16T05:52:02;12.13;;;7.07;;
26082;SDS011;13848;49.018;12.078;2023-03-16T05:54:28;13.02;;;6.93;;
26082;SDS011;13848;49.018;12.078;2023-03-16T05:56:55;13.35;;;6.75;;
26082;SDS011;13848;49.018;12.078;2023-03-16T05:59:21;13.07;;;7.38;;
26082;SDS011;13848;49.018;12.078;2023-03-16T06:01:47;15.18;;;6.90;;
26082;SDS011;13848;49.018;12.078;2023-03-16T06:04:13;9.95;;;6.15;;
26082;SDS011;13848;49.018;12.078;2023-03-16T06:06:39;11.63;;;6.38;;
26082;SDS011;13848;49.018;12.078;2023-03-16T06:09:05;12.23;;;6.18;;
26082;SDS011;13848;49.018;12.078;2023-03-16T06:11:31;13.07;;;6.63;;
26082;SDS011;13848;49.018;12.078;2023-03-16T06:13:58;12.18;;;7.10;;
26082;SDS011;13848;49.018;12.078;2023-03-16T06:16:25;13.13;;;6.80;;
26082;SDS011;13848;49.018;12.078;2023-03-16T06:18:51;11.13;;;6.30;;
26082;SDS011;13848;49.018;12.078;2023-03-16T06:21:17;11.52;;;6.35;;
26082;SDS011;13848;49.018;12.078;2023-03-16T06:23:43;12.00;;;6.18;;
26082;SDS011;13848;49.018;12.078;2023-03-16T06:26:09;11.63;;;6.68;;
26082;SDS011;13848;49.018;12.078;2023-03-16T06:28:35;13.82;;;7.22;;
26082;SDS011;13848;49.018;12.078;2023-03-16T06:31:02;17.38;;;7.65;;
26082;SDS011;13848;49.018;12.078;2023-03-16T06:33:28;16.92;;;7.75;;
26082;SDS011;13848;49.018;12.078;2023-03-16T06:35:54;15.68;;;7.75;;
26082;SDS011;13848;49.018;12.078;2023-03-16T06:38:20;14.63;;;7.85;;
26082;SDS011;13848;49.018;12.078;2023-03-16T06:40:49;15.05;;;6.88;;
26082;SDS011;13848;49.018;12.078;2023-03-16T06:43:16;15.60;;;7.68;;
26082;SDS011;13848;49.018;12.078;2023-03-16T06:45:42;14.10;;;7.93;;
26082;SDS011;13848;49.018;12.078;2023-03-16T06:48:09;16.25;;;7.90;;
26082;SDS011;13848;49.018;12.078;2023-03-16T06:50:35;15.18;;;7.80;;
26082;SDS011;13848;49.018;12.078;2023-03-16T06:53:01;17.90;;;7.78;;
26082;SDS011;13848;49.018;12.078;2023-03-16T06:55:28;18.83;;;8.45;;
26082;SDS011;13848;49.018;12.078;2023-03-16T06:57:54;15.75;;;8.35;;
26082;SDS011;13848;49.018;12.078;2023-03-16T07:00:20;21.48;;;9.35;;
26082;SDS011;13848;49.018;12.078;2023-03-16T07:02:46;17.35;;;9.40;;
26082;SDS011;13848;49.018;12.078;2023-03-16T07:05:13;20.95;;;9.20;;
26082;SDS011;13848;49.018;12.078;2023-03-16T07:07:39;16.60;;;8.70;;
26082;SDS011;13848;49.018;12.078;2023-03-16T07:10:06;20.33;;;8.65;;
26082;SDS011;13848;49.018;12.078;2023-03-16T07:12:33;21.85;;;9.70;;
26082;SDS011;13848;49.018;12.078;2023-03-16T07:14:59;15.82;;;8.50;;
26082;SDS011;13848;49.018;12.078;2023-03-16T07:17:25;17.92;;;8.48;;
26082;SDS011;13848;49.018;12.078;2023-03-16T07:19:51;15.52;;;8.20;;
26082;SDS011;13848;49.018;12.078;2023-03-16T07:22:18;15.55;;;7.70;;
26082;SDS011;13848;49.018;12.078;2023-03-16T07:24:44;12.95;;;7.25;;
26082;SDS011;13848;49.018;12.078;2023-03-16T07:27:10;12.40;;;7.03;;
26082;SDS011;13848;49.018;12.078;2023-03-16T07:29:36;11.70;;;6.40;;
26082;SDS011;13848;49.018;12.078;2023-03-16T07:32:02;12.88;;;7.40;;
26082;SDS011;13848;49.018;12.078;2023-03-16T07:34:28;13.48;;;7.25;;
26082;SDS011;13848;49.018;12.078;2023-03-16T07:36:54;13.07;;;6.65;;
26082;SDS011;13848;49.018;12.078;2023-03-16T07:39:21;12.30;;;6.50;;
26082;SDS011;13848;49.018;12.078;2023-03-16T07:41:47;13.80;;;7.30;;
26082;SDS011;13848;49.018;12.078;2023-03-16T07:44:13;11.52;;;6.50;;
26082;SDS011;13848;49.018;12.078;2023-03-16T07:46:39;12.60;;;6.85;;
26082;SDS011;13848;49.018;12.078;2023-03-16T07:49:04;11.15;;;6.43;;
26082;SDS011;13848;49.018;12.078;2023-03-16T07:51:30;16.52;;;6.53;;
26082;SDS011;13848;49.018;12.078;2023-03-16T07:53:56;10.20;;;6.22;;
26082;SDS011;13848;49.018;12.078;2023-03-16T07:56:24;15.25;;;6.53;;
26082;SDS011;13848;49.018;12.078;2023-03-16T07:58:50;11.60;;;6.60;;
26082;SDS011;13848;49.018;12.078;2023-03-16T08:01:16;13.68;;;6.95;;
26082;SDS011;13848;49.018;12.078;2023-03-16T08:03:42;10.57;;;6.30;;
26082;SDS011;13848;49.018;12.078;2023-03-16T08:06:08;9.90;;;5.85;;
26082;SDS011;13848;49.018;12.078;2023-03-16T08:08:34;10.43;;;6.10;;
26082;SDS011;13848;49.018;12.078;2023-03-16T08:11:00;9.27;;;5.80;;
26082;SDS011;13848;49.018;12.078;2023-03-16T08:13:27;11.55;;;6.38;;
26082;SDS011;13848;49.018;12.078;2023-03-16T08:15:53;14.07;;;6.20;;
26082;SDS011;13848;49.018;12.078;2023-03-16T08:18:19;9.57;;;5.97;;
26082;SDS011;13848;49.018;12.078;2023-03-16T08:20:45;13.07;;;6.90;;
26082;SDS011;13848;49.018;12.078;2023-03-16T08:23:11;10.98;;;6.50;;
26082;SDS011;13848;49.018;12.078;2023-03-16T08:25:36;11.65;;;6.50;;
26082;SDS011;13848;49.018;12.078;2023-03-16T08:28:03;11.55;;;6.60;;
26082;SDS011;13848;49.018;12.078;2023-03-16T08:30:30;10.52;;;6.35;;
26082;SDS011;13848;49.018;12.078;2023-03-16T08:32:56;10.65;;;6.70;;
26082;SDS011;13848;49.018;12.078;2023-03-16T08:35:22;9.80;;;6.18;;
26082;SDS011;13848;49.018;12.078;2023-03-16T08:37:48;10.68;;;6.03;;
26082;SDS011;13848;49.018;12.078;2023-03-16T08:40:14;9.43;;;5.95;;
26082;SDS011;13848;49.018;12.078;2023-03-16T08:42:40;12.10;;;6.80;;
26082;SDS011;13848;49.018;12.078;2023-03-16T08:45:07;11.85;;;6.22;;
26082;SDS011;13848;49.018;12.078;2023-03-16T08:47:35;10.90;;;6.22;;
26082;SDS011;13848;49.018;12.078;2023-03-16T08:50:01;9.40;;;6.13;;
26082;SDS011;13848;49.018;12.078;2023-03-16T08:52:28;9.35;;;6.28;;
26082;SDS011;13848;49.018;12.078;2023-03-16T08:54:54;11.00;;;6.35;;
26082;SDS011;13848;49.018;12.078;2023-03-16T08:57:20;11.15;;;6.35;;
26082;SDS011;13848;49.018;12.078;2023-03-16T08:59:46;10.90;;;6.68;;
26082;SDS011;13848;49.018;12.078;2023-03-16T09:02:12;10.60;;;6.05;;
26082;SDS011;13848;49.018;12.078;2023-03-16T09:04:40;8.38;;;6.07;;
26082;SDS011;13848;49.018;12.078;2023-03-16T09:07:06;9.75;;;6.30;;
26082;SDS011;13848;49.018;12.078;2023-03-16T09:09:32;9.80;;;6.05;;
26082;SDS011;13848;49.018;12.078;2023-03-16T09:11:58;11.05;;;6.47;;
26082;SDS011;13848;49.018;12.078;2023-03-16T09:14:24;11.30;;;6.38;;
26082;SDS011;13848;49.018;12.078;2023-03-16T09:16:50;10.50;;;6.80;;
26082;SDS011;13848;49.018;12.078;2023-03-16T09:19:16;14.32;;;9.43;;
26082;SDS011;13848;49.018;12.078;2023-03-16T09:21:43;10.02;;;5.95;;
26082;SDS011;13848;49.018;12.078;2023-03-16T09:24:09;10.25;;;6.40;;
26082;SDS011;13848;49.018;12.078;2023-03-16T09:26:35;12.38;;;7.50;;
26082;SDS011;13848;49.018;12.078;2023-03-16T09:29:02;11.75;;;6.82;;
26082;SDS011;13848;49.018;12.078;2023-03-16T09:31:28;10.13;;;6.20;;
26082;SDS011;13848;49.018;12.078;2023-03-16T09:33:54;11.05;;;7.07;;
26082;SDS011;13848;49.018;12.078;2023-03-16T09:36:20;11.13;;;6.88;;
26082;SDS011;13848;49.018;12.078;2023-03-16T09:38:47;11.15;;;6.68;;
26082;SDS011;13848;49.018;12.078;2023-03-16T09:41:21;11.55;;;6.28;;
26082;SDS011;13848;49.018;12.078;2023-03-16T09:43:59;9.88;;;6.53;;
26082;SDS011;13848;49.018;12.078;2023-03-16T09:46:32;12.68;;;6.72;;
26082;SDS011;13848;49.018;12.078;2023-03-16T09:49:01;10.65;;;6.38;;
26082;SDS011;13848;49.018;12.078;2023-03-16T09:51:33;10.88;;;6.80;;
26082;SDS011;13848;49.018;12.078;2023-03-16T09:54:04;11.93;;;7.75;;
26082;SDS011;13848;49.018;12.078;2023-03-16T09:56:41;8.63;;;6.38;;
26082;SDS011;13848;49.018;12.078;2023-03-16T09:59:09;8.23;;;5.97;;
26082;SDS011;13848;49.018;12.078;2023-03-16T10:01:38;10.35;;;6.13;;
26082;SDS011;13848;49.018;12.078;2023-03-16T10:04:14;10.25;;;6.15;;
26082;SDS011;13848;49.018;12.078;2023-03-16T10:06:54;10.13;;;6.93;;
26082;SDS011;13848;49.018;12.078;2023-03-16T10:09:31;11.98;;;6.93;;
26082;SDS011;13848;49.018;12.078;2023-03-16T10:12:00;9.65;;;6.50;;
26082;SDS011;13848;49.018;12.078;2023-03-16T10:14:30;9.43;;;6.65;;
26082;SDS011;13848;49.018;12.078;2023-03-16T10:17:02;10.35;;;6.72;;
26082;SDS011;13848;49.018;12.078;2023-03-16T10:19:33;10.35;;;6.97;;
26082;SDS011;13848;49.018;12.078;2023-03-16T10:22:08;12.65;;;7.03;;
26082;SDS011;13848;49.018;12.078;2023-03-16T10:24:44;8.77;;;6.53;;
26082;SDS011;13848;49.018;12.078;2023-03-16T10:27:22;10.35;;;6.95;;
26082;SDS011;13848;49.018;12.078;2023-03-16T10:29:52;10.88;;;6.95;;
26082;SDS011;13848;49.018;12.078;2023-03-16T10:32:18;13.68;;;7.95;;
26082;SDS011;13848;49.018;12.078;2023-03-16T10:34:46;11.45;;;7.68;;
26082;SDS011;13848;49.018;12.078;2023-03-16T10:37:18;13.07;;;7.72;;
26082;SDS011;13848;49.018;12.078;2023-03-16T10:39:46;10.65;;;6.95;;
26082;SDS011;13848;49.018;12.078;2023-03-16T10:42:13;13.60;;;8.23;;
26082;SDS011;13848;49.018;12.078;2023-03-16T10:44:41;12.75;;;8.45;;
26082;SDS011;13848;49.018;12.078;2023-03-16T10:47:14;13.00;;;8.00;;
26082;SDS011;13848;49.018;12.078;2023-03-16T10:49:42;11.43;;;7.68;;
26082;SDS011;13848;49.018;12.078;2023-03-16T10:52:11;12.05;;;7.97;;
26082;SDS011;13848;49.018;12.078;2023-03-16T10:54:45;12.15;;;8.73;;
26082;SDS011;13848;49.018;12.078;2023-03-16T10:57:19;11.52;;;8.05;;
26082;SDS011;13848;49.018;12.078;2023-03-16T10:59:48;13.73;;;7.85;;
26082;SDS011;13848;49.018;12.078;2023-03-16T11:02:16;11.05;;;7.93;;
26082;SDS011;13848;49.018;12.078;2023-03-16T11:04:43;10.63;;;7.70;;
26082;SDS011;13848;49.018;12.078;2023-03-16T11:07:14;10.93;;;7.53;;
26082;SDS011;13848;49.018;12.078;2023-03-16T11:09:41;9.00;;;7.28;;
26082;SDS011;13848;49.018;12.078;2023-03-16T11:12:19;12.68;;;7.78;;
26082;SDS011;13848;49.018;12.078;2023-03-16T11:14:48;10.23;;;7.22;;
26082;SDS011;13848;49.018;12.078;2023-03-16T11:17:15;11.57;;;7.72;;
26082;SDS011;13848;49.018;12.078;2023-03-16T11:19:46;12.80;;;8.55;;
26082;SDS011;13848;49.018;12.078;2023-03-16T11:22:17;12.30;;;8.68;;
26082;SDS011;13848;49.018;12.078;2023-03-16T11:24:48;13.77;;;8.93;;
26082;SDS011;13848;49.018;12.078;2023-03-16T11:27:19;14.85;;;9.25;;
26082;SDS011;13848;49.018;12.078;2023-03-16T11:32:39;10.88;;;7.93;;
26082;SDS011;13848;49.018;12.078;2023-03-16T11:35:11;9.25;;;7.25;;
26082;SDS011;13848;49.018;12.078;2023-03-16T11:37:42;10.35;;;7.65;;
26082;SDS011;13848;49.018;12.078;2023-03-16T11:40:22;9.40;;;7.40;;
26082;SDS011;13848;49.018;12.078;2023-03-16T11:43:21;11.75;;;7.95;;
26082;SDS011;13848;49.018;12.078;2023-03-16T11:46:05;10.10;;;7.40;;
26082;SDS011;13848;49.018;12.078;2023-03-16T11:48:36;11.00;;;7.82;;
26082;SDS011;13848;49.018;12.078;2023-03-16T11:51:08;13.60;;;8.57;;
26082;SDS011;13848;49.018;12.078;2023-03-16T11:53:45;10.55;;;7.85;;
26082;SDS011;13848;49.018;12.078;2023-03-16T11:56:17;9.48;;;7.05;;
26082;SDS011;13848;49.018;12.078;2023-03-16T11:58:59;10.10;;;7.40;;
26082;SDS011;13848;49.018;12.078;2023-03-16T12:01:42;10.18;;;6.70;;
26082;SDS011;13848;49.018;12.078;2023-03-16T12:04:21;9.98;;;6.55;;
26082;SDS011;13848;49.018;12.078;2023-03-16T12:09:38;8.20;;;5.60;;
26082;SDS011;13848;49.018;12.078;2023-03-16T12:12:19;8.70;;;6.07;;
26082;SDS011;13848;49.018;12.078;2023-03-16T12:14:58;12.13;;;6.65;;
26082;SDS011;13848;49.018;12.078;2023-03-16T12:17:34;9.98;;;5.90;;
26082;SDS011;13848;49.018;12.078;2023-03-16T12:20:02;8.32;;;5.45;;
26082;SDS011;13848;49.018;12.078;2023-03-16T12:22:32;7.55;;;5.72;;
26082;SDS011;13848;49.018;12.078;2023-03-16T12:25:02;8.60;;;5.95;;
26082;SDS011;13848;49.018;12.078;2023-03-16T12:27:36;8.57;;;5.63;;
26082;SDS011;13848;49.018;12.078;2023-03-16T12:30:11;8.88;;;5.78;;
26082;SDS011;13848;49.018;12.078;2023-03-16T12:32:50;7.25;;;5.47;;
26082;SDS011;13848;49.018;12.078;2023-03-16T12:35:26;8.52;;;6.20;;
26082;SDS011;13848;49.018;12.078;2023-03-16T12:38:07;10.10;;;5.47;;
26082;SDS011;13848;49.018;12.078;2023-03-16T12:40:55;9.93;;;6.20;;
26082;SDS011;13848;49.018;12.078;2023-03-16T12:43:32;12.43;;;7.32;;
26082;SDS011;13848;49.018;12.078;2023-03-16T12:46:09;10.23;;;5.32;;
26082;SDS011;13848;49.018;12.078;2023-03-16T12:48:37;8.30;;;5.40;;
26082;SDS011;13848;49.018;12.078;2023-03-16T12:51:07;7.28;;;5.60;;
26082;SDS011;13848;49.018;12.078;2023-03-16T12:53:41;7.60;;;4.50;;
26082;SDS011;13848;49.018;12.078;2023-03-16T12:56:10;6.35;;;4.80;;
26082;SDS011;13848;49.018;12.078;2023-03-16T12:58:44;9.43;;;4.80;;
26082;SDS011;13848;49.018;12.078;2023-03-16T13:01:14;7.25;;;4.95;;
26082;SDS011;13848;49.018;12.078;2023-03-16T13:03:43;11.45;;;7.03;;
26082;SDS011;13848;49.018;12.078;2023-03-16T13:06:16;8.13;;;6.07;;
26082;SDS011;13848;49.018;12.078;2023-03-16T13:08:46;7.72;;;5.40;;
26082;SDS011;13848;49.018;12.078;2023-03-16T13:11:14;6.50;;;4.90;;
26082;SDS011;13848;49.018;12.078;2023-03-16T13:13:47;6.20;;;4.55;;
26082;SDS011;13848;49.018;12.078;2023-03-16T13:16:23;5.95;;;4.28;;
26082;SDS011;13848;49.018;12.078;2023-03-16T13:18:51;6.30;;;4.47;;
26082;SDS011;13848;49.018;12.078;2023-03-16T13:21:18;5.60;;;4.10;;
26082;SDS011;13848;49.018;12.078;2023-03-16T13:23:46;8.35;;;5.03;;
26082;SDS011;13848;49.018;12.078;2023-03-16T13:26:21;4.85;;;3.65;;
26082;SDS011;13848;49.018;12.078;2023-03-16T13:28:51;4.90;;;3.67;;
26082;SDS011;13848;49.018;12.078;2023-03-16T13:31:21;4.72;;;3.53;;
26082;SDS011;13848;49.018;12.078;2023-03-16T13:33:53;5.68;;;4.07;;
26082;SDS011;13848;49.018;12.078;2023-03-16T13:36:21;4.03;;;3.20;;
26082;SDS011;13848;49.018;12.078;2023-03-16T13:38:54;5.45;;;3.67;;
26082;SDS011;13848;49.018;12.078;2023-03-16T13:41:21;4.75;;;3.80;;
26082;SDS011;13848;49.018;12.078;2023-03-16T13:43:47;4.25;;;3.58;;
26082;SDS011;13848;49.018;12.078;2023-03-16T13:46:13;4.78;;;3.53;;
26082;SDS011;13848;49.018;12.078;2023-03-16T13:48:41;4.40;;;3.50;;
26082;SDS011;13848;49.018;12.078;2023-03-16T13:51:10;4.70;;;3.55;;
26082;SDS011;13848;49.018;12.078;2023-03-16T13:53:39;5.22;;;3.40;;
26082;SDS011;13848;49.018;12.078;2023-03-16T13:56:06;4.38;;;3.15;;
26082;SDS011;13848;49.018;12.078;2023-03-16T13:58:33;3.88;;;2.60;;
26082;SDS011;13848;49.018;12.078;2023-03-16T14:01:02;3.63;;;2.90;;
26082;SDS011;13848;49.018;12.078;2023-03-16T14:03:36;5.00;;;3.13;;
26082;SDS011;13848;49.018;12.078;2023-03-16T14:06:06;4.05;;;2.78;;
26082;SDS011;13848;49.018;12.078;2023-03-16T14:08:41;5.82;;;2.78;;
26082;SDS011;13848;49.018;12.078;2023-03-16T14:11:12;3.80;;;3.10;;
26082;SDS011;13848;49.018;12.078;2023-03-16T14:13:38;11.45;;;2.65;;
26082;SDS011;13848;49.018;12.078;2023-03-16T14:16:09;4.28;;;2.95;;
26082;SDS011;13848;49.018;12.078;2023-03-16T14:18:38;7.05;;;3.13;;
26082;SDS011;13848;49.018;12.078;2023-03-16T14:21:08;3.67;;;2.70;;
26082;SDS011;13848;49.018;12.078;2023-03-16T14:23:39;4.55;;;2.70;;
26082;SDS011;13848;49.018;12.078;2023-03-16T14:26:10;3.95;;;2.75;;
26082;SDS011;13848;49.018;12.078;2023-03-16T14:28:37;5.25;;;2.80;;
26082;SDS011;13848;49.018;12.078;2023-03-16T14:31:04;5.18;;;2.85;;
26082;SDS011;13848;49.018;12.078;2023-03-16T14:33:35;4.45;;;2.90;;
26082;SDS011;13848;49.018;12.078;2023-03-16T14:36:06;6.28;;;2.75;;
26082;SDS011;13848;49.018;12.078;2023-03-16T14:38:37;7.25;;;2.67;;